createdAt,value
2023-01-29T00:01:37.131Z,4.33
2023-01-29T00:04:05.895Z,4.70
2023-01-29T00:06:35.331Z,4.78
2023-01-29T00:09:04.064Z,4.38
2023-01-29T00:11:32.346Z,4.57
2023-01-29T00:14:00.614Z,4.03
2023-01-29T00:16:28.795Z,3.90
2023-01-29T00:18:57.050Z,4.75
2023-01-29T00:21:27.663Z,4.47
2023-01-29T00:23:57.726Z,4.93
2023-01-29T00:26:26.341Z,4.23
2023-01-29T00:28:56.928Z,4.47
2023-01-29T00:31:25.998Z,4.18
2023-01-29T00:33:54.545Z,4.88
2023-01-29T00:36:23.104Z,4.50
2023-01-29T00:38:58.495Z,4.90
2023-01-29T00:41:54.023Z,4.72
2023-01-29T00:44:40.999Z,4.13
2023-01-29T00:47:29.897Z,4.53
2023-01-29T00:49:58.746Z,4.63
2023-01-29T00:52:26.991Z,4.17
2023-01-29T00:54:58.772Z,4.75
2023-01-29T00:57:28.138Z,5.30
2023-01-29T00:59:56.551Z,4.50
2023-01-29T01:02:42.701Z,4.95
2023-01-29T01:05:18.068Z,4.50
2023-01-29T01:07:47.100Z,4.75
2023-01-29T01:10:21.169Z,4.72
2023-01-29T01:12:50.652Z,4.97
2023-01-29T01:15:19.522Z,4.72
2023-01-29T01:17:48.769Z,4.70
2023-01-29T01:20:17.487Z,4.68
2023-01-29T01:22:45.688Z,4.32
2023-01-29T01:25:13.999Z,5.18
2023-01-29T01:27:43.375Z,4.90
2023-01-29T01:30:14.114Z,4.50
2023-01-29T01:32:43.382Z,4.53
2023-01-29T01:35:13.658Z,5.43
2023-01-29T01:37:42.185Z,4.93
2023-01-29T01:40:18.399Z,4.32
2023-01-29T01:42:50.346Z,4.00
2023-01-29T01:45:24.269Z,5.00
2023-01-29T01:47:56.625Z,4.78
2023-01-29T01:50:28.324Z,5.00
2023-01-29T01:53:00.101Z,5.00
2023-01-29T01:55:29.416Z,5.17
2023-01-29T01:58:04.551Z,4.88
2023-01-29T02:00:32.866Z,4.85
2023-01-29T02:03:19.424Z,5.25
2023-01-29T02:06:08.069Z,4.88
2023-01-29T02:08:57.662Z,5.03
2023-01-29T02:11:26.529Z,4.57
2023-01-29T02:13:55.873Z,5.32
2023-01-29T02:16:27.183Z,4.97
2023-01-29T02:18:56.747Z,5.20
2023-01-29T02:21:49.829Z,5.53
2023-01-29T02:24:46.148Z,5.82
2023-01-29T02:27:16.532Z,5.95
2023-01-29T02:29:54.274Z,6.43
2023-01-29T02:32:27.547Z,5.80
2023-01-29T02:35:22.028Z,5.63
2023-01-29T02:37:55.904Z,5.95
2023-01-29T02:40:30.683Z,5.65
2023-01-29T02:43:05.604Z,6.25
2023-01-29T02:45:40.460Z,6.20
2023-01-29T02:48:09.663Z,5.70
2023-01-29T02:50:43.650Z,5.47
2023-01-29T02:53:16.037Z,5.30
2023-01-29T02:55:47.318Z,4.75
2023-01-29T02:58:21.529Z,4.60
2023-01-29T03:00:52.595Z,5.00
2023-01-29T03:03:24.557Z,5.25
2023-01-29T03:05:55.920Z,5.07
2023-01-29T03:08:36.945Z,5.30
2023-01-29T03:11:06.999Z,5.07
2023-01-29T03:13:42.654Z,5.47
2023-01-29T03:16:16.315Z,5.60
2023-01-29T03:18:51.190Z,5.20
2023-01-29T03:21:41.095Z,5.00
2023-01-29T03:24:32.266Z,5.30
2023-01-29T03:27:21.204Z,4.83
2023-01-29T03:30:08.895Z,5.05
2023-01-29T03:32:52.307Z,5.65
2023-01-29T03:35:36.613Z,6.32
2023-01-29T03:38:07.348Z,5.47
2023-01-29T03:40:39.954Z,5.60
2023-01-29T03:43:11.797Z,5.63
2023-01-29T03:45:44.380Z,4.85
2023-01-29T03:48:17.867Z,5.10
2023-01-29T03:50:53.863Z,5.72
2023-01-29T03:53:25.200Z,12.07
2023-01-29T03:55:59.641Z,6.57
2023-01-29T03:58:33.604Z,4.75
2023-01-29T04:01:04.108Z,5.45
2023-01-29T04:03:35.742Z,5.15
2023-01-29T04:06:10.677Z,5.20
2023-01-29T04:09:02.885Z,4.97
2023-01-29T04:11:32.326Z,5.18
2023-01-29T04:14:01.382Z,5.38
2023-01-29T04:16:33.202Z,5.50
2023-01-29T04:19:32.070Z,5.20
2023-01-29T04:22:05.344Z,5.45
2023-01-29T04:24:33.865Z,5.10
2023-01-29T04:27:10.679Z,5.20
2023-01-29T04:29:53.078Z,6.20
2023-01-29T04:32:27.358Z,5.77
2023-01-29T04:35:02.198Z,5.47
2023-01-29T04:37:37.833Z,6.00
2023-01-29T04:40:16.166Z,5.63
2023-01-29T04:42:49.311Z,5.72
2023-01-29T04:45:21.653Z,4.97
2023-01-29T04:47:52.666Z,5.40
2023-01-29T04:50:26.497Z,5.43
2023-01-29T04:53:00.416Z,5.25
2023-01-29T04:55:33.934Z,5.63
2023-01-29T04:58:06.553Z,5.53
2023-01-29T05:00:36.925Z,5.63
2023-01-29T05:03:06.151Z,5.13
2023-01-29T05:05:35.556Z,5.38
2023-01-29T05:08:04.341Z,6.28
2023-01-29T05:10:32.464Z,5.90
2023-01-29T05:13:02.591Z,6.18
2023-01-29T05:15:34.788Z,6.63
2023-01-29T05:18:04.199Z,6.07
2023-01-29T05:20:34.722Z,6.57
2023-01-29T05:23:03.100Z,6.00
2023-01-29T05:25:32.988Z,5.85
2023-01-29T05:28:06.915Z,5.47
2023-01-29T05:30:36.729Z,5.43
2023-01-29T05:33:05.927Z,5.00
2023-01-29T05:35:35.222Z,5.03
2023-01-29T05:38:03.724Z,5.35
2023-01-29T05:40:31.810Z,5.10
2023-01-29T05:43:00.181Z,5.10
2023-01-29T05:45:28.155Z,5.45
2023-01-29T05:47:57.783Z,5.20
2023-01-29T05:50:26.147Z,4.95
2023-01-29T05:52:58.985Z,5.22
2023-01-29T05:55:27.451Z,5.00
2023-01-29T05:57:55.841Z,4.65
2023-01-29T06:00:23.994Z,5.40
2023-01-29T06:02:52.290Z,5.35
2023-01-29T06:05:20.381Z,4.72
2023-01-29T06:07:48.641Z,5.22
2023-01-29T06:10:19.372Z,5.68
2023-01-29T06:12:47.857Z,5.40
2023-01-29T06:15:16.348Z,4.93
2023-01-29T06:17:44.582Z,5.55
2023-01-29T06:20:13.227Z,5.70
2023-01-29T06:22:41.516Z,5.28
2023-01-29T06:25:10.426Z,5.43
2023-01-29T06:27:40.025Z,5.40
2023-01-29T06:30:09.343Z,5.50
2023-01-29T06:32:37.602Z,5.93
2023-01-29T06:35:06.444Z,5.90
2023-01-29T06:37:34.657Z,6.33
2023-01-29T06:40:02.781Z,5.80
2023-01-29T06:42:31.054Z,5.72
2023-01-29T06:45:00.380Z,5.50
2023-01-29T06:47:28.743Z,6.03
2023-01-29T06:49:56.832Z,5.20
2023-01-29T06:52:28.812Z,5.28
2023-01-29T06:54:57.421Z,5.32
2023-01-29T06:57:25.648Z,5.00
2023-01-29T06:59:53.590Z,6.03
2023-01-29T07:02:23.195Z,5.53
2023-01-29T07:04:51.215Z,4.97
2023-01-29T07:07:19.451Z,6.97
2023-01-29T07:09:47.467Z,7.40
2023-01-29T07:12:15.684Z,6.47
2023-01-29T07:14:43.692Z,6.20
2023-01-29T07:17:11.876Z,6.28
2023-01-29T07:19:41.183Z,6.35
2023-01-29T07:22:09.467Z,6.55
2023-01-29T07:24:37.458Z,6.72
2023-01-29T07:27:05.700Z,6.00
2023-01-29T07:29:33.684Z,6.07
2023-01-29T07:32:02.014Z,6.70
2023-01-29T07:34:30.047Z,8.60
2023-01-29T07:36:59.640Z,8.07
2023-01-29T07:39:27.583Z,6.40
2023-01-29T07:41:55.808Z,6.50
2023-01-29T07:44:24.434Z,6.88
2023-01-29T07:46:52.873Z,6.38
2023-01-29T07:49:20.956Z,7.05
2023-01-29T07:51:49.203Z,6.23
2023-01-29T07:54:18.614Z,7.20
2023-01-29T07:56:46.862Z,6.57
2023-01-29T07:59:14.932Z,7.20
2023-01-29T08:01:43.141Z,7.10
2023-01-29T08:04:11.279Z,7.20
2023-01-29T08:06:39.572Z,7.78
2023-01-29T08:09:08.551Z,7.53
2023-01-29T08:11:38.138Z,7.38
2023-01-29T08:14:06.071Z,7.70
2023-01-29T08:16:34.381Z,8.17
2023-01-29T08:19:02.820Z,7.10
2023-01-29T08:21:31.209Z,7.82
2023-01-29T08:26:32.434Z,6.15
2023-01-29T08:29:01.935Z,5.70
2023-01-29T08:31:30.323Z,5.72
2023-01-29T08:33:58.800Z,6.18
2023-01-29T08:36:27.040Z,6.00
2023-01-29T08:38:54.987Z,6.15
2023-01-29T08:41:23.243Z,6.07
2023-01-29T08:43:51.251Z,6.07
2023-01-29T08:46:20.949Z,6.18
2023-01-29T08:48:49.155Z,5.53
2023-01-29T08:51:17.447Z,5.90
2023-01-29T08:53:45.452Z,6.07
2023-01-29T08:56:13.763Z,5.93
2023-01-29T08:58:41.704Z,6.05
2023-01-29T09:01:11.207Z,6.20
2023-01-29T09:03:41.091Z,5.68
2023-01-29T09:06:10.672Z,5.97
2023-01-29T09:08:38.766Z,6.03
2023-01-29T09:11:07.353Z,6.82
2023-01-29T09:13:35.462Z,6.38
2023-01-29T09:16:04.931Z,7.22
2023-01-29T09:18:33.639Z,8.60
2023-01-29T09:21:03.517Z,7.90
2023-01-29T09:23:32.086Z,8.65
2023-01-29T09:26:00.231Z,8.20
2023-01-29T09:28:28.503Z,7.63
2023-01-29T09:30:56.561Z,7.17
2023-01-29T09:33:26.082Z,6.13
2023-01-29T09:35:54.075Z,6.30
2023-01-29T09:38:23.701Z,6.75
2023-01-29T09:40:59.290Z,6.57
2023-01-29T09:43:35.306Z,6.63
2023-01-29T09:46:07.261Z,6.45
2023-01-29T09:48:36.616Z,7.22
2023-01-29T09:51:08.045Z,7.43
2023-01-29T09:53:40.520Z,7.10
2023-01-29T09:56:13.296Z,8.23
2023-01-29T09:58:43.110Z,7.03
2023-01-29T10:01:18.004Z,7.82
2023-01-29T10:04:19.145Z,7.40
2023-01-29T10:06:56.558Z,7.13
2023-01-29T10:09:56.576Z,7.37
2023-01-29T10:12:39.670Z,7.10
2023-01-29T10:15:18.411Z,7.97
2023-01-29T10:17:57.606Z,7.32
2023-01-29T10:20:44.678Z,7.65
2023-01-29T10:23:19.737Z,7.20
2023-01-29T10:25:49.740Z,7.07
2023-01-29T10:28:19.905Z,7.43
2023-01-29T10:30:50.640Z,7.18
2023-01-29T10:33:26.033Z,7.97
2023-01-29T10:35:57.310Z,7.00
2023-01-29T10:38:38.547Z,7.30
2023-01-29T10:41:20.724Z,8.32
2023-01-29T10:43:59.322Z,8.15
2023-01-29T10:46:39.496Z,7.93
2023-01-29T10:49:18.923Z,7.17
2023-01-29T10:52:04.614Z,8.07
2023-01-29T10:54:55.054Z,9.38
2023-01-29T10:57:37.282Z,8.68
2023-01-29T11:00:13.024Z,8.75
2023-01-29T11:02:45.840Z,8.13
2023-01-29T11:05:20.736Z,8.25
2023-01-29T11:07:49.729Z,8.43
2023-01-29T11:10:20.266Z,8.63
2023-01-29T11:12:50.914Z,8.80
2023-01-29T11:15:23.729Z,8.33
2023-01-29T11:18:13.923Z,8.55
2023-01-29T11:20:42.538Z,8.63
2023-01-29T11:23:27.132Z,9.43
2023-01-29T11:25:56.665Z,9.50
2023-01-29T11:28:40.358Z,9.10
2023-01-29T11:31:17.668Z,8.15
2023-01-29T11:33:46.657Z,8.38
2023-01-29T11:36:33.552Z,7.38
2023-01-29T11:39:11.993Z,8.93
2023-01-29T11:41:49.459Z,8.67
2023-01-29T11:44:25.302Z,8.57
2023-01-29T11:46:53.349Z,8.20
2023-01-29T11:49:26.620Z,8.38
2023-01-29T11:51:56.425Z,8.27
2023-01-29T11:54:26.829Z,8.43
2023-01-29T11:56:54.940Z,7.70
2023-01-29T11:59:31.313Z,8.75
2023-01-29T12:02:13.803Z,8.23
2023-01-29T12:04:42.168Z,8.93
2023-01-29T12:07:14.559Z,8.47
2023-01-29T12:09:43.269Z,7.55
2023-01-29T12:12:19.583Z,8.25
2023-01-29T12:15:04.164Z,8.00
2023-01-29T12:17:34.621Z,9.25
2023-01-29T12:20:06.069Z,8.03
2023-01-29T12:22:41.421Z,10.60
2023-01-29T12:25:17.627Z,8.70
2023-01-29T12:27:49.435Z,7.80
2023-01-29T12:30:23.366Z,8.68
2023-01-29T12:32:55.484Z,8.90
2023-01-29T12:35:26.913Z,8.48
2023-01-29T12:37:58.200Z,8.15
2023-01-29T12:40:28.704Z,8.27
2023-01-29T12:43:01.560Z,8.60
2023-01-29T12:45:32.565Z,8.13
2023-01-29T12:48:03.298Z,8.75
2023-01-29T12:50:34.664Z,8.52
2023-01-29T12:53:06.292Z,8.73
2023-01-29T12:55:39.265Z,8.23
2023-01-29T12:58:14.109Z,8.10
2023-01-29T13:00:45.050Z,8.25
2023-01-29T13:03:20.745Z,8.45
2023-01-29T13:05:51.715Z,8.10
2023-01-29T13:08:22.850Z,7.80
2023-01-29T13:10:52.947Z,7.60
2023-01-29T13:13:27.753Z,8.35
2023-01-29T13:15:59.983Z,8.38
2023-01-29T13:18:37.641Z,7.90
2023-01-29T13:21:06.646Z,7.68
2023-01-29T13:23:38.229Z,8.17
2023-01-29T13:26:06.948Z,8.23
2023-01-29T13:28:35.225Z,8.32
2023-01-29T13:31:19.877Z,8.32
2023-01-29T13:33:54.281Z,8.18
2023-01-29T13:36:26.919Z,8.00
2023-01-29T13:38:58.824Z,7.93
2023-01-29T13:41:34.144Z,8.15
2023-01-29T13:44:02.318Z,8.75
2023-01-29T13:46:33.332Z,7.97
2023-01-29T13:49:04.844Z,8.00
2023-01-29T13:51:37.214Z,8.05
2023-01-29T13:54:08.684Z,7.93
2023-01-29T13:56:48.983Z,7.47
2023-01-29T13:59:25.108Z,13.18
2023-01-29T14:02:23.266Z,11.43
2023-01-29T14:04:52.332Z,10.07
2023-01-29T14:07:40.278Z,11.07
2023-01-29T14:10:17.291Z,8.48
2023-01-29T14:12:47.153Z,8.50
2023-01-29T14:15:23.686Z,7.87
2023-01-29T14:18:22.494Z,8.63
2023-01-29T14:21:02.268Z,9.45
2023-01-29T14:23:42.294Z,9.30
2023-01-29T14:26:27.047Z,8.98
2023-01-29T14:29:00.162Z,9.27
2023-01-29T14:31:30.752Z,9.45
2023-01-29T14:34:03.289Z,10.05
2023-01-29T14:36:39.840Z,10.75
2023-01-29T14:39:08.623Z,8.30
2023-01-29T14:41:37.373Z,8.80
2023-01-29T14:44:42.803Z,8.52
2023-01-29T14:47:19.231Z,9.65
2023-01-29T14:49:54.123Z,9.23
2023-01-29T14:52:25.555Z,8.70
2023-01-29T14:54:54.250Z,8.40
2023-01-29T14:57:22.980Z,9.45
2023-01-29T14:59:56.216Z,8.52
2023-01-29T15:02:27.593Z,8.45
2023-01-29T15:04:59.400Z,8.38
2023-01-29T15:07:31.759Z,8.13
2023-01-29T15:10:21.980Z,7.10
2023-01-29T15:12:53.942Z,9.43
2023-01-29T15:15:28.717Z,8.40
2023-01-29T15:17:59.947Z,10.00
2023-01-29T15:20:31.938Z,9.00
2023-01-29T15:23:00.568Z,8.32
2023-01-29T15:25:33.752Z,8.52
2023-01-29T15:28:02.153Z,8.15
2023-01-29T15:30:34.037Z,9.35
2023-01-29T15:33:02.761Z,8.80
2023-01-29T15:35:35.834Z,8.60
2023-01-29T15:38:05.970Z,10.35
2023-01-29T15:40:35.091Z,8.80
2023-01-29T15:43:03.073Z,8.68
2023-01-29T15:45:32.909Z,10.23
2023-01-29T15:48:04.933Z,10.77
2023-01-29T15:50:37.945Z,10.00
2023-01-29T15:53:10.802Z,8.30
2023-01-29T15:55:40.263Z,8.05
2023-01-29T15:58:14.726Z,10.67
2023-01-29T16:00:49.833Z,10.27
2023-01-29T16:03:20.575Z,13.77
2023-01-29T16:05:50.722Z,10.00
2023-01-29T16:08:19.667Z,10.60
2023-01-29T16:10:50.675Z,10.27
2023-01-29T16:13:22.324Z,9.55
2023-01-29T16:15:58.334Z,10.45
2023-01-29T16:18:30.934Z,10.40
2023-01-29T16:21:05.391Z,10.02
2023-01-29T16:23:42.851Z,10.77
2023-01-29T16:26:16.901Z,13.77
2023-01-29T16:28:45.738Z,15.57
2023-01-29T16:31:15.454Z,13.85
2023-01-29T16:33:45.321Z,11.70
2023-01-29T16:36:18.483Z,12.93
2023-01-29T16:38:48.873Z,12.93
2023-01-29T16:41:31.291Z,12.13
2023-01-29T16:44:00.172Z,11.48
2023-01-29T16:46:34.313Z,11.80
2023-01-29T16:49:02.894Z,10.90
2023-01-29T16:51:38.052Z,10.63
2023-01-29T16:54:10.830Z,10.20
2023-01-29T16:56:39.576Z,10.70
2023-01-29T16:59:07.648Z,11.70
2023-01-29T17:01:37.544Z,10.40
2023-01-29T17:04:09.907Z,10.07
2023-01-29T17:06:40.852Z,10.02
2023-01-29T17:09:09.578Z,10.68
2023-01-29T17:11:39.842Z,13.13
2023-01-29T17:14:11.332Z,10.47
2023-01-29T17:16:50.317Z,10.57
2023-01-29T17:19:22.398Z,11.77
2023-01-29T17:21:52.052Z,10.40
2023-01-29T17:24:20.236Z,11.18
2023-01-29T17:26:48.960Z,10.87
2023-01-29T17:29:20.199Z,11.07
2023-01-29T17:31:48.469Z,10.18
2023-01-29T17:34:18.531Z,10.45
2023-01-29T17:36:47.077Z,10.60
2023-01-29T17:39:19.324Z,11.40
2023-01-29T17:41:51.508Z,12.13
2023-01-29T17:44:23.297Z,15.43
2023-01-29T17:46:51.526Z,15.20
2023-01-29T17:49:24.262Z,16.27
2023-01-29T17:51:52.881Z,15.67
2023-01-29T17:54:23.270Z,14.20
2023-01-29T17:56:52.368Z,12.77
2023-01-29T17:59:21.783Z,12.40
2023-01-29T18:01:50.761Z,12.35
2023-01-29T18:04:19.251Z,10.43
2023-01-29T18:06:49.169Z,10.88
2023-01-29T18:09:18.749Z,11.70
2023-01-29T18:11:49.160Z,12.05
2023-01-29T18:14:17.455Z,13.25
2023-01-29T18:16:46.479Z,12.80
2023-01-29T18:19:17.578Z,11.77
2023-01-29T18:21:45.891Z,12.30
2023-01-29T18:24:13.907Z,12.55
2023-01-29T18:26:42.612Z,13.05
2023-01-29T18:29:12.063Z,13.17
2023-01-29T18:31:40.541Z,12.02
2023-01-29T18:34:08.587Z,12.73
2023-01-29T18:36:36.912Z,10.85
2023-01-29T18:39:05.103Z,11.95
2023-01-29T18:41:33.315Z,11.03
2023-01-29T18:44:01.328Z,11.55
2023-01-29T18:46:30.977Z,11.77
2023-01-29T18:48:59.014Z,11.93
2023-01-29T18:51:27.362Z,12.40
2023-01-29T18:53:55.485Z,12.10
2023-01-29T18:56:24.816Z,13.27
2023-01-29T18:58:55.775Z,14.38
2023-01-29T19:01:24.647Z,12.02
2023-01-29T19:03:54.087Z,12.65
2023-01-29T19:06:22.613Z,12.83
2023-01-29T19:08:50.642Z,15.23
2023-01-29T19:11:18.933Z,15.85
2023-01-29T19:13:47.960Z,24.77
2023-01-29T19:16:16.287Z,21.25
2023-01-29T19:18:44.525Z,20.13
2023-01-29T19:21:15.755Z,16.20
2023-01-29T19:23:44.749Z,22.73
2023-01-29T19:26:13.337Z,20.80
2023-01-29T19:28:41.746Z,14.18
2023-01-29T19:31:10.827Z,15.87
2023-01-29T19:33:39.871Z,15.75
2023-01-29T19:36:08.857Z,13.93
2023-01-29T19:38:38.856Z,12.98
2023-01-29T19:41:07.288Z,13.65
2023-01-29T19:43:35.355Z,13.83
2023-01-29T19:46:03.783Z,14.95
2023-01-29T19:48:31.794Z,14.00
2023-01-29T19:51:01.461Z,12.50
2023-01-29T19:53:30.010Z,12.43
2023-01-29T19:56:00.493Z,12.83
2023-01-29T19:58:29.172Z,12.75
2023-01-29T20:00:58.124Z,13.25
2023-01-29T20:03:26.889Z,11.05
2023-01-29T20:05:55.187Z,12.40
2023-01-29T20:08:23.825Z,11.93
2023-01-29T20:10:52.179Z,13.43
2023-01-29T20:13:21.570Z,15.10
2023-01-29T20:15:51.836Z,12.27
2023-01-29T20:18:20.202Z,12.77
2023-01-29T20:20:49.870Z,12.17
2023-01-29T20:23:35.287Z,13.07
2023-01-29T20:26:05.977Z,13.52
2023-01-29T20:28:35.671Z,13.25
2023-01-29T20:31:04.961Z,13.57
2023-01-29T20:33:33.640Z,11.47
2023-01-29T20:36:03.355Z,12.10
2023-01-29T20:38:31.895Z,12.30
2023-01-29T20:41:04.859Z,11.80
2023-01-29T20:43:33.162Z,12.35
2023-01-29T20:46:03.734Z,11.53
2023-01-29T20:48:31.971Z,12.48
2023-01-29T20:51:05.606Z,11.25
2023-01-29T20:53:33.671Z,11.00
2023-01-29T20:56:04.211Z,11.68
2023-01-29T20:58:32.573Z,14.27
2023-01-29T21:01:02.559Z,15.20
2023-01-29T21:03:30.759Z,16.00
2023-01-29T21:05:59.841Z,14.85
2023-01-29T21:08:27.974Z,12.93
2023-01-29T21:10:56.208Z,14.00
2023-01-29T21:13:24.166Z,15.70
2023-01-29T21:15:52.408Z,13.80
2023-01-29T21:18:21.815Z,18.52
2023-01-29T21:20:50.686Z,22.10
2023-01-29T21:23:18.759Z,27.77
2023-01-29T21:25:48.030Z,20.63
2023-01-29T21:28:17.239Z,19.92
2023-01-29T21:30:46.304Z,20.88
2023-01-29T21:33:14.301Z,19.52
2023-01-29T21:35:43.936Z,16.83
2023-01-29T21:38:12.094Z,15.07
2023-01-29T21:40:40.328Z,14.55
2023-01-29T21:43:11.772Z,15.75
2023-01-29T21:45:40.580Z,16.27
2023-01-29T21:48:09.119Z,14.37
2023-01-29T21:50:37.955Z,14.13
2023-01-29T21:53:07.437Z,12.98
2023-01-29T21:55:35.667Z,13.07
2023-01-29T21:58:04.288Z,13.52
2023-01-29T22:00:32.933Z,12.63
2023-01-29T22:03:01.002Z,11.63
2023-01-29T22:05:30.071Z,11.40
2023-01-29T22:07:58.080Z,12.52
2023-01-29T22:10:28.550Z,13.02
2023-01-29T22:12:56.760Z,12.87
2023-01-29T22:15:24.957Z,11.52
2023-01-29T22:17:52.977Z,12.38
2023-01-29T22:20:29.366Z,11.57
2023-01-29T22:22:59.265Z,11.30
2023-01-29T22:25:29.097Z,12.20
2023-01-29T22:27:57.103Z,12.43
2023-01-29T22:30:25.615Z,12.25
2023-01-29T22:32:53.660Z,13.00
2023-01-29T22:35:21.918Z,11.15
2023-01-29T22:37:49.894Z,13.47
2023-01-29T22:40:18.887Z,11.80
2023-01-29T22:42:48.269Z,12.13
2023-01-29T22:45:16.940Z,13.05
2023-01-29T22:47:44.929Z,12.48
2023-01-29T22:50:13.724Z,12.50
2023-01-29T22:52:42.647Z,12.00
2023-01-29T22:55:12.703Z,11.65
2023-01-29T22:57:41.080Z,11.73
2023-01-29T23:00:12.231Z,11.35
2023-01-29T23:02:40.214Z,12.10
2023-01-29T23:05:09.226Z,11.65
2023-01-29T23:07:37.239Z,11.82
2023-01-29T23:10:07.150Z,12.02
2023-01-29T23:12:35.310Z,11.65
2023-01-29T23:15:03.550Z,10.77
2023-01-29T23:17:33.009Z,11.75
2023-01-29T23:20:01.216Z,12.77
2023-01-29T23:22:29.192Z,10.98
2023-01-29T23:24:57.431Z,12.10
2023-01-29T23:27:24.552Z,11.67
2023-01-29T23:29:52.817Z,11.75
2023-01-29T23:32:21.940Z,13.00
2023-01-29T23:34:51.532Z,10.95
2023-01-29T23:37:19.520Z,11.25
2023-01-29T23:39:47.730Z,11.77
2023-01-29T23:42:15.745Z,11.82
2023-01-29T23:44:43.976Z,11.85
2023-01-29T23:47:11.919Z,12.93
2023-01-29T23:49:40.171Z,11.32
2023-01-29T23:52:09.466Z,11.30
2023-01-29T23:54:37.659Z,11.80
2023-01-29T23:57:05.644Z,11.80
2023-01-29T23:59:33.994Z,11.57
